Bee Cave, Texas
Current Conditions -  °F | °C
As of 11:15 PM on Thursday 30 Oct 2014 (Local Time) from KRYW Reporting Station
Overcast Overcast  
Wind Chill: 69°   Ceiling: 7000
Heat Index: 69°   Visibility: 10mi
Dew Point: 58°   Wind: 3mph
Humidity: 68%   Direction: 80°E
Pressure: 30.14"   Gusts: NA
Location:  30.3763°N, 97.9464°W
Report Text: KRYW 310415Z AUTO 08003KT 10SM BKN070 OVC100 21/15 A3014 RMK AO2 T02070147
Loading
Personal Weather Stations






























Interactive Weather Map
Tropical Storm Tracking
New forecast layout! Learn more

10-Day Weather Forecast

Advertisements
Track Severe Weather on mobile